Disclaimer

Please do not use the information listed here in-flight or in-navigation, as they are not provided to us by the airports but are provided by volunteers, so they might be outdated.

Search


Regions


Airport information page

Radio informations:
CASABLANCA APP - 124.5 MHz

Airport informations:
Latitude: 33° 52' 44.64" N
Longitude: 005° 30' 54.45" W
Elevation: 1890 feet - 576 meters
Operating hours: N/A
Operating agency: Military
Timezone: N/A
Fuel: N/A

Runway information:
08/26 - 6420 x 164 feet< - >1957 x 50 meters
09/27 - 9252 x 164 feet< - >2820 x 50 meters

Recent METARs:
GMFM 131900Z 10006KT 6000 FEW013 BKN020 BKN100 14/12 Q1018 NOSIG
GMFM 132000Z 12006KT 8000 SCT020 BKN100 14/12 Q1017 NOSIG
GMFM 132000Z 12006KT 8000 SCT020 BKN100 14/12 Q1017 NOSIG

Airport on the map: